sensor_id;sensor_type;location;lat;lon;timestamp;P1;durP1;ratioP1;P2;durP2;ratioP2
19260;SDS011;9764;48.114;11.670;2023-02-28T00:01:27;2.05;;;0.95;;
19260;SDS011;9764;48.114;11.670;2023-02-28T00:03:58;0.85;;;0.80;;
19260;SDS011;9764;48.114;11.670;2023-02-28T00:06:26;0.80;;;0.68;;
19260;SDS011;9764;48.114;11.670;2023-02-28T00:08:55;1.05;;;0.80;;
19260;SDS011;9764;48.114;11.670;2023-02-28T00:11:23;1.00;;;0.88;;
19260;SDS011;9764;48.114;11.670;2023-02-28T00:13:52;0.80;;;0.80;;
19260;SDS011;9764;48.114;11.670;2023-02-28T00:16:20;0.82;;;0.82;;
19260;SDS011;9764;48.114;11.670;2023-02-28T00:18:50;1.08;;;0.95;;
19260;SDS011;9764;48.114;11.670;2023-02-28T00:21:19;1.33;;;0.88;;
19260;SDS011;9764;48.114;11.670;2023-02-28T00:23:48;0.80;;;0.75;;
19260;SDS011;9764;48.114;11.670;2023-02-28T00:26:17;0.77;;;0.77;;
19260;SDS011;9764;48.114;11.670;2023-02-28T00:28:48;0.70;;;0.70;;
19260;SDS011;9764;48.114;11.670;2023-02-28T00:31:19;0.88;;;0.80;;
19260;SDS011;9764;48.114;11.670;2023-02-28T00:33:47;1.00;;;0.82;;
19260;SDS011;9764;48.114;11.670;2023-02-28T00:36:17;0.73;;;0.73;;
19260;SDS011;9764;48.114;11.670;2023-02-28T00:38:47;0.75;;;0.75;;
19260;SDS011;9764;48.114;11.670;2023-02-28T00:41:15;1.10;;;1.00;;
19260;SDS011;9764;48.114;11.670;2023-02-28T00:43:43;1.15;;;0.90;;
19260;SDS011;9764;48.114;11.670;2023-02-28T00:46:11;1.23;;;0.90;;
19260;SDS011;9764;48.114;11.670;2023-02-28T00:48:40;0.80;;;0.80;;
19260;SDS011;9764;48.114;11.670;2023-02-28T00:51:08;1.27;;;0.90;;
19260;SDS011;9764;48.114;11.670;2023-02-28T00:53:36;0.82;;;0.82;;
19260;SDS011;9764;48.114;11.670;2023-02-28T00:56:06;0.95;;;0.82;;
19260;SDS011;9764;48.114;11.670;2023-02-28T00:58:34;0.95;;;0.70;;
19260;SDS011;9764;48.114;11.670;2023-02-28T01:01:03;0.60;;;0.60;;
19260;SDS011;9764;48.114;11.670;2023-02-28T01:03:31;0.70;;;0.70;;
19260;SDS011;9764;48.114;11.670;2023-02-28T01:06:00;0.88;;;0.88;;
19260;SDS011;9764;48.114;11.670;2023-02-28T01:08:28;0.80;;;0.80;;
19260;SDS011;9764;48.114;11.670;2023-02-28T01:10:56;1.27;;;0.90;;
19260;SDS011;9764;48.114;11.670;2023-02-28T01:13:28;1.48;;;1.00;;
19260;SDS011;9764;48.114;11.670;2023-02-28T01:15:57;0.70;;;0.70;;
19260;SDS011;9764;48.114;11.670;2023-02-28T01:18:25;0.70;;;0.70;;
19260;SDS011;9764;48.114;11.670;2023-02-28T01:20:53;0.93;;;0.88;;
19260;SDS011;9764;48.114;11.670;2023-02-28T01:23:22;0.90;;;0.90;;
19260;SDS011;9764;48.114;11.670;2023-02-28T01:25:51;0.90;;;0.90;;
19260;SDS011;9764;48.114;11.670;2023-02-28T01:28:20;0.77;;;0.77;;
19260;SDS011;9764;48.114;11.670;2023-02-28T01:30:50;1.00;;;0.90;;
19260;SDS011;9764;48.114;11.670;2023-02-28T01:33:19;0.80;;;0.80;;
19260;SDS011;9764;48.114;11.670;2023-02-28T01:35:47;0.85;;;0.82;;
19260;SDS011;9764;48.114;11.670;2023-02-28T01:38:16;1.00;;;0.85;;
19260;SDS011;9764;48.114;11.670;2023-02-28T01:40:49;1.20;;;1.00;;
19260;SDS011;9764;48.114;11.670;2023-02-28T01:43:19;0.90;;;0.80;;
19260;SDS011;9764;48.114;11.670;2023-02-28T01:45:52;0.80;;;0.80;;
19260;SDS011;9764;48.114;11.670;2023-02-28T01:48:23;1.15;;;0.70;;
19260;SDS011;9764;48.114;11.670;2023-02-28T01:50:53;0.80;;;0.80;;
19260;SDS011;9764;48.114;11.670;2023-02-28T01:53:26;0.90;;;0.88;;
19260;SDS011;9764;48.114;11.670;2023-02-28T01:55:58;1.00;;;0.90;;
19260;SDS011;9764;48.114;11.670;2023-02-28T01:58:27;1.63;;;1.10;;
19260;SDS011;9764;48.114;11.670;2023-02-28T02:00:57;0.70;;;0.70;;
19260;SDS011;9764;48.114;11.670;2023-02-28T02:03:25;0.95;;;0.80;;
19260;SDS011;9764;48.114;11.670;2023-02-28T02:05:57;0.80;;;0.80;;
19260;SDS011;9764;48.114;11.670;2023-02-28T02:08:26;0.90;;;0.80;;
19260;SDS011;9764;48.114;11.670;2023-02-28T02:10:56;0.73;;;0.73;;
19260;SDS011;9764;48.114;11.670;2023-02-28T02:13:34;0.90;;;0.90;;
19260;SDS011;9764;48.114;11.670;2023-02-28T02:16:23;1.13;;;1.00;;
19260;SDS011;9764;48.114;11.670;2023-02-28T02:19:04;1.13;;;0.80;;
19260;SDS011;9764;48.114;11.670;2023-02-28T02:21:49;0.80;;;0.70;;
19260;SDS011;9764;48.114;11.670;2023-02-28T02:27:42;0.90;;;0.80;;
19260;SDS011;9764;48.114;11.670;2023-02-28T02:33:20;0.80;;;0.80;;
19260;SDS011;9764;48.114;11.670;2023-02-28T02:36:16;0.70;;;0.70;;
19260;SDS011;9764;48.114;11.670;2023-02-28T02:38:52;0.88;;;0.88;;
19260;SDS011;9764;48.114;11.670;2023-02-28T02:41:26;0.90;;;0.90;;
19260;SDS011;9764;48.114;11.670;2023-02-28T02:44:05;0.90;;;0.90;;
19260;SDS011;9764;48.114;11.670;2023-02-28T02:46:39;0.88;;;0.80;;
19260;SDS011;9764;48.114;11.670;2023-02-28T02:49:12;0.90;;;0.90;;
19260;SDS011;9764;48.114;11.670;2023-02-28T02:51:45;1.13;;;0.90;;
19260;SDS011;9764;48.114;11.670;2023-02-28T02:54:15;0.80;;;0.80;;
19260;SDS011;9764;48.114;11.670;2023-02-28T02:56:48;0.82;;;0.82;;
19260;SDS011;9764;48.114;11.670;2023-02-28T02:59:18;0.75;;;0.75;;
19260;SDS011;9764;48.114;11.670;2023-02-28T03:01:51;0.90;;;0.90;;
19260;SDS011;9764;48.114;11.670;2023-02-28T03:04:23;1.20;;;0.80;;
19260;SDS011;9764;48.114;11.670;2023-02-28T03:06:55;1.13;;;1.02;;
19260;SDS011;9764;48.114;11.670;2023-02-28T03:09:24;0.95;;;0.90;;
19260;SDS011;9764;48.114;11.670;2023-02-28T03:11:54;0.70;;;0.70;;
19260;SDS011;9764;48.114;11.670;2023-02-28T03:14:29;0.90;;;0.80;;
19260;SDS011;9764;48.114;11.670;2023-02-28T03:17:14;0.80;;;0.80;;
19260;SDS011;9764;48.114;11.670;2023-02-28T03:20:01;1.00;;;0.90;;
19260;SDS011;9764;48.114;11.670;2023-02-28T03:22:42;0.73;;;0.70;;
19260;SDS011;9764;48.114;11.670;2023-02-28T03:25:20;0.70;;;0.70;;
19260;SDS011;9764;48.114;11.670;2023-02-28T03:27:54;0.90;;;0.90;;
19260;SDS011;9764;48.114;11.670;2023-02-28T03:30:29;1.13;;;0.95;;
19260;SDS011;9764;48.114;11.670;2023-02-28T03:33:05;1.27;;;1.10;;
19260;SDS011;9764;48.114;11.670;2023-02-28T03:35:39;1.13;;;1.00;;
19260;SDS011;9764;48.114;11.670;2023-02-28T03:38:12;1.15;;;1.00;;
19260;SDS011;9764;48.114;11.670;2023-02-28T03:40:46;0.95;;;0.88;;
19260;SDS011;9764;48.114;11.670;2023-02-28T03:43:18;0.80;;;0.80;;
19260;SDS011;9764;48.114;11.670;2023-02-28T03:45:50;0.98;;;0.98;;
19260;SDS011;9764;48.114;11.670;2023-02-28T03:48:20;0.82;;;0.82;;
19260;SDS011;9764;48.114;11.670;2023-02-28T03:50:53;0.70;;;0.70;;
19260;SDS011;9764;48.114;11.670;2023-02-28T03:53:25;0.95;;;0.85;;
19260;SDS011;9764;48.114;11.670;2023-02-28T03:55:56;0.80;;;0.80;;
19260;SDS011;9764;48.114;11.670;2023-02-28T03:58:29;1.33;;;1.10;;
19260;SDS011;9764;48.114;11.670;2023-02-28T04:01:01;0.70;;;0.70;;
19260;SDS011;9764;48.114;11.670;2023-02-28T04:03:35;1.40;;;0.98;;
19260;SDS011;9764;48.114;11.670;2023-02-28T04:06:04;0.95;;;0.90;;
19260;SDS011;9764;48.114;11.670;2023-02-28T04:08:34;0.90;;;0.90;;
19260;SDS011;9764;48.114;11.670;2023-02-28T04:11:04;0.70;;;0.70;;
19260;SDS011;9764;48.114;11.670;2023-02-28T04:13:40;0.93;;;0.90;;
19260;SDS011;9764;48.114;11.670;2023-02-28T04:16:12;1.15;;;1.05;;
19260;SDS011;9764;48.114;11.670;2023-02-28T04:18:57;1.05;;;0.95;;
19260;SDS011;9764;48.114;11.670;2023-02-28T04:21:29;0.90;;;0.90;;
19260;SDS011;9764;48.114;11.670;2023-02-28T04:24:00;2.83;;;1.05;;
19260;SDS011;9764;48.114;11.670;2023-02-28T04:26:29;2.30;;;0.82;;
19260;SDS011;9764;48.114;11.670;2023-02-28T04:28:58;1.02;;;0.93;;
19260;SDS011;9764;48.114;11.670;2023-02-28T04:31:27;0.75;;;0.75;;
19260;SDS011;9764;48.114;11.670;2023-02-28T04:33:56;1.17;;;1.08;;
19260;SDS011;9764;48.114;11.670;2023-02-28T04:36:24;1.15;;;0.95;;
19260;SDS011;9764;48.114;11.670;2023-02-28T04:38:53;0.80;;;0.75;;
19260;SDS011;9764;48.114;11.670;2023-02-28T04:41:23;1.10;;;1.00;;
19260;SDS011;9764;48.114;11.670;2023-02-28T04:43:53;2.00;;;1.00;;
19260;SDS011;9764;48.114;11.670;2023-02-28T04:46:22;0.80;;;0.80;;
19260;SDS011;9764;48.114;11.670;2023-02-28T04:48:50;0.80;;;0.70;;
19260;SDS011;9764;48.114;11.670;2023-02-28T04:51:19;1.17;;;0.88;;
19260;SDS011;9764;48.114;11.670;2023-02-28T04:53:48;1.00;;;0.85;;
19260;SDS011;9764;48.114;11.670;2023-02-28T04:56:19;2.20;;;1.30;;
19260;SDS011;9764;48.114;11.670;2023-02-28T04:58:49;1.17;;;1.00;;
19260;SDS011;9764;48.114;11.670;2023-02-28T05:01:20;0.80;;;0.80;;
19260;SDS011;9764;48.114;11.670;2023-02-28T05:03:50;1.38;;;1.10;;
19260;SDS011;9764;48.114;11.670;2023-02-28T05:06:20;1.30;;;1.00;;
19260;SDS011;9764;48.114;11.670;2023-02-28T05:08:50;1.00;;;0.90;;
19260;SDS011;9764;48.114;11.670;2023-02-28T05:11:19;0.90;;;0.70;;
19260;SDS011;9764;48.114;11.670;2023-02-28T05:13:50;1.10;;;1.00;;
19260;SDS011;9764;48.114;11.670;2023-02-28T05:16:19;1.05;;;0.82;;
19260;SDS011;9764;48.114;11.670;2023-02-28T05:18:47;1.10;;;1.00;;
19260;SDS011;9764;48.114;11.670;2023-02-28T05:21:26;1.30;;;0.90;;
19260;SDS011;9764;48.114;11.670;2023-02-28T05:23:57;1.75;;;0.95;;
19260;SDS011;9764;48.114;11.670;2023-02-28T05:26:28;1.10;;;1.00;;
19260;SDS011;9764;48.114;11.670;2023-02-28T05:28:58;1.48;;;1.02;;
19260;SDS011;9764;48.114;11.670;2023-02-28T05:31:26;1.33;;;0.70;;
19260;SDS011;9764;48.114;11.670;2023-02-28T05:33:55;1.65;;;1.00;;
19260;SDS011;9764;48.114;11.670;2023-02-28T05:36:23;1.15;;;0.90;;
19260;SDS011;9764;48.114;11.670;2023-02-28T05:38:52;1.10;;;1.00;;
19260;SDS011;9764;48.114;11.670;2023-02-28T05:41:20;1.10;;;0.85;;
19260;SDS011;9764;48.114;11.670;2023-02-28T05:43:48;1.55;;;0.82;;
19260;SDS011;9764;48.114;11.670;2023-02-28T05:46:18;1.05;;;0.95;;
19260;SDS011;9764;48.114;11.670;2023-02-28T05:48:47;1.05;;;0.95;;
19260;SDS011;9764;48.114;11.670;2023-02-28T05:51:16;0.98;;;0.98;;
19260;SDS011;9764;48.114;11.670;2023-02-28T05:53:44;1.00;;;0.93;;
19260;SDS011;9764;48.114;11.670;2023-02-28T05:56:14;1.00;;;0.90;;
19260;SDS011;9764;48.114;11.670;2023-02-28T05:58:43;1.05;;;0.98;;
19260;SDS011;9764;48.114;11.670;2023-02-28T06:01:23;1.00;;;0.75;;
19260;SDS011;9764;48.114;11.670;2023-02-28T06:03:59;0.77;;;0.75;;
19260;SDS011;9764;48.114;11.670;2023-02-28T06:06:27;0.90;;;0.70;;
19260;SDS011;9764;48.114;11.670;2023-02-28T06:08:56;1.10;;;1.00;;
19260;SDS011;9764;48.114;11.670;2023-02-28T06:11:25;1.20;;;0.95;;
19260;SDS011;9764;48.114;11.670;2023-02-28T06:13:55;1.02;;;0.90;;
19260;SDS011;9764;48.114;11.670;2023-02-28T06:16:25;0.80;;;0.80;;
19260;SDS011;9764;48.114;11.670;2023-02-28T06:18:54;1.00;;;0.90;;
19260;SDS011;9764;48.114;11.670;2023-02-28T06:21:24;1.33;;;1.00;;
19260;SDS011;9764;48.114;11.670;2023-02-28T06:23:54;1.98;;;1.15;;
19260;SDS011;9764;48.114;11.670;2023-02-28T06:26:23;2.35;;;0.90;;
19260;SDS011;9764;48.114;11.670;2023-02-28T06:28:52;0.93;;;0.90;;
19260;SDS011;9764;48.114;11.670;2023-02-28T06:31:20;2.17;;;1.10;;
19260;SDS011;9764;48.114;11.670;2023-02-28T06:33:51;1.42;;;0.90;;
19260;SDS011;9764;48.114;11.670;2023-02-28T06:36:19;2.20;;;0.95;;
19260;SDS011;9764;48.114;11.670;2023-02-28T06:38:47;1.48;;;0.90;;
19260;SDS011;9764;48.114;11.670;2023-02-28T06:41:21;2.65;;;1.35;;
19260;SDS011;9764;48.114;11.670;2023-02-28T06:43:50;2.03;;;0.82;;
19260;SDS011;9764;48.114;11.670;2023-02-28T06:46:18;1.38;;;1.10;;
19260;SDS011;9764;48.114;11.670;2023-02-28T06:48:48;0.90;;;0.82;;
19260;SDS011;9764;48.114;11.670;2023-02-28T06:51:19;0.90;;;0.90;;
19260;SDS011;9764;48.114;11.670;2023-02-28T06:53:49;1.00;;;0.90;;
19260;SDS011;9764;48.114;11.670;2023-02-28T06:56:17;1.10;;;1.00;;
19260;SDS011;9764;48.114;11.670;2023-02-28T06:58:47;0.77;;;0.77;;
19260;SDS011;9764;48.114;11.670;2023-02-28T07:01:16;1.15;;;1.05;;
19260;SDS011;9764;48.114;11.670;2023-02-28T07:03:45;1.27;;;1.17;;
19260;SDS011;9764;48.114;11.670;2023-02-28T07:06:20;1.10;;;0.90;;
19260;SDS011;9764;48.114;11.670;2023-02-28T07:08:50;0.75;;;0.75;;
19260;SDS011;9764;48.114;11.670;2023-02-28T07:11:19;1.02;;;0.95;;
19260;SDS011;9764;48.114;11.670;2023-02-28T07:13:48;0.90;;;0.90;;
19260;SDS011;9764;48.114;11.670;2023-02-28T07:16:17;0.95;;;0.90;;
19260;SDS011;9764;48.114;11.670;2023-02-28T07:18:46;0.80;;;0.80;;
19260;SDS011;9764;48.114;11.670;2023-02-28T07:21:15;1.00;;;0.90;;
19260;SDS011;9764;48.114;11.670;2023-02-28T07:23:45;1.42;;;0.98;;
19260;SDS011;9764;48.114;11.670;2023-02-28T07:26:14;0.90;;;0.90;;
19260;SDS011;9764;48.114;11.670;2023-02-28T07:28:45;1.85;;;1.10;;
19260;SDS011;9764;48.114;11.670;2023-02-28T07:31:14;0.80;;;0.80;;
19260;SDS011;9764;48.114;11.670;2023-02-28T07:33:43;0.90;;;0.90;;
19260;SDS011;9764;48.114;11.670;2023-02-28T07:36:12;1.20;;;1.00;;
19260;SDS011;9764;48.114;11.670;2023-02-28T07:38:45;1.52;;;1.15;;
19260;SDS011;9764;48.114;11.670;2023-02-28T07:41:16;1.23;;;1.08;;
19260;SDS011;9764;48.114;11.670;2023-02-28T07:43:45;1.02;;;0.93;;
19260;SDS011;9764;48.114;11.670;2023-02-28T07:46:15;0.90;;;0.90;;
19260;SDS011;9764;48.114;11.670;2023-02-28T07:48:46;0.95;;;0.90;;
19260;SDS011;9764;48.114;11.670;2023-02-28T07:51:15;0.88;;;0.88;;
19260;SDS011;9764;48.114;11.670;2023-02-28T07:53:44;0.88;;;0.88;;
19260;SDS011;9764;48.114;11.670;2023-02-28T07:56:13;1.17;;;0.82;;
19260;SDS011;9764;48.114;11.670;2023-02-28T07:58:41;1.08;;;0.98;;
19260;SDS011;9764;48.114;11.670;2023-02-28T08:01:10;1.10;;;1.00;;
19260;SDS011;9764;48.114;11.670;2023-02-28T08:03:39;2.13;;;1.10;;
19260;SDS011;9764;48.114;11.670;2023-02-28T08:06:09;0.95;;;0.95;;
19260;SDS011;9764;48.114;11.670;2023-02-28T08:08:45;3.22;;;1.20;;
19260;SDS011;9764;48.114;11.670;2023-02-28T08:11:14;0.80;;;0.80;;
19260;SDS011;9764;48.114;11.670;2023-02-28T08:13:42;0.73;;;0.73;;
19260;SDS011;9764;48.114;11.670;2023-02-28T08:16:12;1.20;;;1.00;;
19260;SDS011;9764;48.114;11.670;2023-02-28T08:18:44;2.28;;;1.30;;
19260;SDS011;9764;48.114;11.670;2023-02-28T08:21:12;0.90;;;0.90;;
19260;SDS011;9764;48.114;11.670;2023-02-28T08:23:40;0.80;;;0.80;;
19260;SDS011;9764;48.114;11.670;2023-02-28T08:26:10;0.80;;;0.80;;
19260;SDS011;9764;48.114;11.670;2023-02-28T08:28:38;1.45;;;1.00;;
19260;SDS011;9764;48.114;11.670;2023-02-28T08:31:07;1.15;;;1.05;;
19260;SDS011;9764;48.114;11.670;2023-02-28T08:33:36;1.10;;;1.00;;
19260;SDS011;9764;48.114;11.670;2023-02-28T08:36:06;0.80;;;0.80;;
19260;SDS011;9764;48.114;11.670;2023-02-28T08:38:35;1.05;;;0.98;;
19260;SDS011;9764;48.114;11.670;2023-02-28T08:41:05;1.30;;;1.20;;
19260;SDS011;9764;48.114;11.670;2023-02-28T08:43:36;1.48;;;1.15;;
19260;SDS011;9764;48.114;11.670;2023-02-28T08:46:05;1.10;;;1.00;;
19260;SDS011;9764;48.114;11.670;2023-02-28T08:48:35;1.23;;;1.10;;
19260;SDS011;9764;48.114;11.670;2023-02-28T08:51:05;1.45;;;1.15;;
19260;SDS011;9764;48.114;11.670;2023-02-28T08:53:37;1.08;;;1.05;;
19260;SDS011;9764;48.114;11.670;2023-02-28T08:56:06;1.40;;;1.30;;
19260;SDS011;9764;48.114;11.670;2023-02-28T08:58:37;1.20;;;1.10;;
19260;SDS011;9764;48.114;11.670;2023-02-28T09:01:09;2.63;;;1.20;;
19260;SDS011;9764;48.114;11.670;2023-02-28T09:03:39;1.42;;;1.00;;
19260;SDS011;9764;48.114;11.670;2023-02-28T09:06:08;1.27;;;1.17;;
19260;SDS011;9764;48.114;11.670;2023-02-28T09:08:38;1.30;;;1.20;;
19260;SDS011;9764;48.114;11.670;2023-02-28T09:11:06;1.20;;;1.05;;
19260;SDS011;9764;48.114;11.670;2023-02-28T09:13:35;1.30;;;1.20;;
19260;SDS011;9764;48.114;11.670;2023-02-28T09:16:06;1.10;;;1.00;;
19260;SDS011;9764;48.114;11.670;2023-02-28T09:18:37;1.10;;;1.00;;
19260;SDS011;9764;48.114;11.670;2023-02-28T09:21:06;0.98;;;0.93;;
19260;SDS011;9764;48.114;11.670;2023-02-28T09:23:36;1.02;;;1.00;;
19260;SDS011;9764;48.114;11.670;2023-02-28T09:26:05;1.23;;;1.13;;
19260;SDS011;9764;48.114;11.670;2023-02-28T09:28:34;1.35;;;1.15;;
19260;SDS011;9764;48.114;11.670;2023-02-28T09:31:04;1.15;;;1.00;;
19260;SDS011;9764;48.114;11.670;2023-02-28T09:33:32;1.23;;;1.13;;
19260;SDS011;9764;48.114;11.670;2023-02-28T09:36:02;1.50;;;1.15;;
19260;SDS011;9764;48.114;11.670;2023-02-28T09:38:31;1.20;;;1.13;;
19260;SDS011;9764;48.114;11.670;2023-02-28T09:41:01;2.20;;;1.20;;
19260;SDS011;9764;48.114;11.670;2023-02-28T09:43:32;1.30;;;1.20;;
19260;SDS011;9764;48.114;11.670;2023-02-28T09:46:07;1.30;;;1.20;;
19260;SDS011;9764;48.114;11.670;2023-02-28T09:48:42;1.27;;;1.17;;
19260;SDS011;9764;48.114;11.670;2023-02-28T09:51:15;1.40;;;1.30;;
19260;SDS011;9764;48.114;11.670;2023-02-28T09:53:58;1.20;;;1.10;;
19260;SDS011;9764;48.114;11.670;2023-02-28T09:56:29;1.58;;;1.48;;
19260;SDS011;9764;48.114;11.670;2023-02-28T09:59:01;1.40;;;1.20;;
19260;SDS011;9764;48.114;11.670;2023-02-28T10:01:37;3.35;;;1.27;;
19260;SDS011;9764;48.114;11.670;2023-02-28T10:04:12;1.55;;;1.08;;
19260;SDS011;9764;48.114;11.670;2023-02-28T10:06:46;1.17;;;0.85;;
19260;SDS011;9764;48.114;11.670;2023-02-28T10:09:17;1.20;;;1.10;;
19260;SDS011;9764;48.114;11.670;2023-02-28T10:11:50;1.33;;;1.23;;
19260;SDS011;9764;48.114;11.670;2023-02-28T10:14:24;2.03;;;1.25;;
19260;SDS011;9764;48.114;11.670;2023-02-28T10:16:58;1.20;;;1.10;;
19260;SDS011;9764;48.114;11.670;2023-02-28T10:19:30;1.38;;;1.20;;
19260;SDS011;9764;48.114;11.670;2023-02-28T10:22:03;1.38;;;1.27;;
19260;SDS011;9764;48.114;11.670;2023-02-28T10:24:39;1.30;;;1.20;;
19260;SDS011;9764;48.114;11.670;2023-02-28T10:27:12;1.63;;;1.30;;
19260;SDS011;9764;48.114;11.670;2023-02-28T10:29:44;1.52;;;1.30;;
19260;SDS011;9764;48.114;11.670;2023-02-28T10:32:15;1.42;;;1.33;;
19260;SDS011;9764;48.114;11.670;2023-02-28T10:34:46;1.60;;;1.40;;
19260;SDS011;9764;48.114;11.670;2023-02-28T10:37:19;1.42;;;1.33;;
19260;SDS011;9764;48.114;11.670;2023-02-28T10:39:48;2.28;;;1.40;;
19260;SDS011;9764;48.114;11.670;2023-02-28T10:42:22;1.85;;;1.50;;
19260;SDS011;9764;48.114;11.670;2023-02-28T10:45:04;1.35;;;1.25;;
19260;SDS011;9764;48.114;11.670;2023-02-28T10:47:40;1.27;;;1.17;;
19260;SDS011;9764;48.114;11.670;2023-02-28T10:50:26;1.20;;;1.10;;
19260;SDS011;9764;48.114;11.670;2023-02-28T10:53:00;1.60;;;1.50;;
19260;SDS011;9764;48.114;11.670;2023-02-28T10:55:43;1.52;;;1.17;;
19260;SDS011;9764;48.114;11.670;2023-02-28T10:58:20;1.50;;;1.40;;
19260;SDS011;9764;48.114;11.670;2023-02-28T11:00:50;1.48;;;1.38;;
19260;SDS011;9764;48.114;11.670;2023-02-28T11:03:34;1.67;;;1.33;;
19260;SDS011;9764;48.114;11.670;2023-02-28T11:06:06;1.23;;;1.13;;
19260;SDS011;9764;48.114;11.670;2023-02-28T11:08:43;1.35;;;1.25;;
19260;SDS011;9764;48.114;11.670;2023-02-28T11:11:14;1.17;;;1.10;;
19260;SDS011;9764;48.114;11.670;2023-02-28T11:13:45;1.60;;;1.25;;
19260;SDS011;9764;48.114;11.670;2023-02-28T11:16:17;1.33;;;1.23;;
19260;SDS011;9764;48.114;11.670;2023-02-28T11:18:48;1.40;;;1.30;;
19260;SDS011;9764;48.114;11.670;2023-02-28T11:21:21;1.40;;;1.30;;
19260;SDS011;9764;48.114;11.670;2023-02-28T11:23:53;1.63;;;1.33;;
19260;SDS011;9764;48.114;11.670;2023-02-28T11:26:35;1.60;;;1.20;;
19260;SDS011;9764;48.114;11.670;2023-02-28T11:29:10;5.00;;;1.40;;
19260;SDS011;9764;48.114;11.670;2023-02-28T11:31:43;1.50;;;1.40;;
19260;SDS011;9764;48.114;11.670;2023-02-28T11:34:29;1.92;;;1.60;;
19260;SDS011;9764;48.114;11.670;2023-02-28T11:36:59;3.10;;;1.55;;
19260;SDS011;9764;48.114;11.670;2023-02-28T11:39:31;1.77;;;1.60;;
19260;SDS011;9764;48.114;11.670;2023-02-28T11:42:04;1.30;;;1.20;;
19260;SDS011;9764;48.114;11.670;2023-02-28T11:44:45;1.40;;;1.30;;
19260;SDS011;9764;48.114;11.670;2023-02-28T11:47:25;2.63;;;1.45;;
19260;SDS011;9764;48.114;11.670;2023-02-28T11:50:14;1.90;;;1.48;;
19260;SDS011;9764;48.114;11.670;2023-02-28T11:52:48;1.60;;;1.50;;
19260;SDS011;9764;48.114;11.670;2023-02-28T11:55:23;3.17;;;1.50;;
19260;SDS011;9764;48.114;11.670;2023-02-28T11:58:05;2.35;;;1.73;;
19260;SDS011;9764;48.114;11.670;2023-02-28T12:00:49;1.80;;;1.50;;
19260;SDS011;9764;48.114;11.670;2023-02-28T12:03:33;1.77;;;1.38;;
19260;SDS011;9764;48.114;11.670;2023-02-28T12:06:16;2.03;;;1.80;;
19260;SDS011;9764;48.114;11.670;2023-02-28T12:11:44;1.55;;;1.35;;
19260;SDS011;9764;48.114;11.670;2023-02-28T12:17:21;1.65;;;1.40;;
19260;SDS011;9764;48.114;11.670;2023-02-28T12:19:59;1.67;;;1.48;;
19260;SDS011;9764;48.114;11.670;2023-02-28T12:22:41;1.38;;;1.25;;
19260;SDS011;9764;48.114;11.670;2023-02-28T12:28:27;1.63;;;1.52;;
19260;SDS011;9764;48.114;11.670;2023-02-28T12:31:04;2.83;;;1.60;;
19260;SDS011;9764;48.114;11.670;2023-02-28T12:33:40;4.03;;;1.50;;
19260;SDS011;9764;48.114;11.670;2023-02-28T12:36:13;1.35;;;1.20;;
19260;SDS011;9764;48.114;11.670;2023-02-28T12:38:48;1.95;;;1.33;;
19260;SDS011;9764;48.114;11.670;2023-02-28T12:41:24;3.15;;;1.60;;
19260;SDS011;9764;48.114;11.670;2023-02-28T12:44:01;1.65;;;1.40;;
19260;SDS011;9764;48.114;11.670;2023-02-28T12:46:34;1.92;;;1.40;;
19260;SDS011;9764;48.114;11.670;2023-02-28T12:49:08;1.42;;;1.30;;
19260;SDS011;9764;48.114;11.670;2023-02-28T12:51:40;2.17;;;1.40;;
19260;SDS011;9764;48.114;11.670;2023-02-28T12:54:14;1.85;;;1.63;;
19260;SDS011;9764;48.114;11.670;2023-02-28T12:56:50;2.42;;;1.50;;
19260;SDS011;9764;48.114;11.670;2023-02-28T12:59:25;2.60;;;1.35;;
19260;SDS011;9764;48.114;11.670;2023-02-28T13:02:20;2.00;;;1.75;;
19260;SDS011;9764;48.114;11.670;2023-02-28T13:05:23;1.77;;;1.58;;
19260;SDS011;9764;48.114;11.670;2023-02-28T13:08:16;1.88;;;1.35;;
19260;SDS011;9764;48.114;11.670;2023-02-28T13:10:56;1.73;;;1.55;;
19260;SDS011;9764;48.114;11.670;2023-02-28T13:13:26;2.28;;;1.40;;
19260;SDS011;9764;48.114;11.670;2023-02-28T13:15:57;1.50;;;1.38;;
19260;SDS011;9764;48.114;11.670;2023-02-28T13:18:32;1.60;;;1.50;;
19260;SDS011;9764;48.114;11.670;2023-02-28T13:21:04;2.42;;;1.50;;
19260;SDS011;9764;48.114;11.670;2023-02-28T13:23:38;3.33;;;1.42;;
19260;SDS011;9764;48.114;11.670;2023-02-28T13:29:32;2.13;;;1.55;;
19260;SDS011;9764;48.114;11.670;2023-02-28T13:38:32;2.92;;;1.80;;
19260;SDS011;9764;48.114;11.670;2023-02-28T13:44:09;1.52;;;1.33;;
19260;SDS011;9764;48.114;11.670;2023-02-28T13:49:41;1.90;;;1.70;;
19260;SDS011;9764;48.114;11.670;2023-02-28T13:52:11;2.30;;;1.40;;
19260;SDS011;9764;48.114;11.670;2023-02-28T13:54:50;1.55;;;1.42;;
19260;SDS011;9764;48.114;11.670;2023-02-28T14:00:57;1.63;;;1.40;;
19260;SDS011;9764;48.114;11.670;2023-02-28T14:03:37;1.73;;;1.42;;
19260;SDS011;9764;48.114;11.670;2023-02-28T14:06:25;1.80;;;1.42;;
19260;SDS011;9764;48.114;11.670;2023-02-28T14:08:57;1.83;;;1.60;;
19260;SDS011;9764;48.114;11.670;2023-02-28T14:11:30;1.85;;;1.50;;
19260;SDS011;9764;48.114;11.670;2023-02-28T14:14:00;2.22;;;1.63;;
19260;SDS011;9764;48.114;11.670;2023-02-28T14:16:38;1.73;;;1.50;;
19260;SDS011;9764;48.114;11.670;2023-02-28T14:19:11;2.08;;;1.70;;
19260;SDS011;9764;48.114;11.670;2023-02-28T14:21:47;1.52;;;1.42;;
19260;SDS011;9764;48.114;11.670;2023-02-28T14:24:38;1.52;;;1.40;;
19260;SDS011;9764;48.114;11.670;2023-02-28T14:27:23;1.60;;;1.45;;
19260;SDS011;9764;48.114;11.670;2023-02-28T14:30:01;1.75;;;1.65;;
19260;SDS011;9764;48.114;11.670;2023-02-28T14:32:41;2.55;;;1.33;;
19260;SDS011;9764;48.114;11.670;2023-02-28T14:35:18;2.53;;;1.63;;
19260;SDS011;9764;48.114;11.670;2023-02-28T14:37:58;2.78;;;1.75;;
19260;SDS011;9764;48.114;11.670;2023-02-28T14:40:27;2.13;;;1.60;;
19260;SDS011;9764;48.114;11.670;2023-02-28T14:43:00;1.63;;;1.50;;
19260;SDS011;9764;48.114;11.670;2023-02-28T14:45:30;2.45;;;1.55;;
19260;SDS011;9764;48.114;11.670;2023-02-28T14:47:59;1.73;;;1.60;;
19260;SDS011;9764;48.114;11.670;2023-02-28T14:50:31;1.70;;;1.60;;
19260;SDS011;9764;48.114;11.670;2023-02-28T14:53:03;1.92;;;1.60;;
19260;SDS011;9764;48.114;11.670;2023-02-28T14:55:44;1.60;;;1.50;;
19260;SDS011;9764;48.114;11.670;2023-02-28T14:58:19;2.30;;;2.10;;
19260;SDS011;9764;48.114;11.670;2023-02-28T15:00:50;2.15;;;1.33;;
19260;SDS011;9764;48.114;11.670;2023-02-28T15:03:21;2.50;;;1.90;;
19260;SDS011;9764;48.114;11.670;2023-02-28T15:05:51;1.85;;;1.60;;
19260;SDS011;9764;48.114;11.670;2023-02-28T15:08:23;2.17;;;1.70;;
19260;SDS011;9764;48.114;11.670;2023-02-28T15:10:53;3.35;;;1.85;;
19260;SDS011;9764;48.114;11.670;2023-02-28T15:13:24;2.08;;;1.70;;
19260;SDS011;9764;48.114;11.670;2023-02-28T15:15:59;1.88;;;1.60;;
19260;SDS011;9764;48.114;11.670;2023-02-28T15:18:33;2.00;;;1.67;;
19260;SDS011;9764;48.114;11.670;2023-02-28T15:21:11;1.88;;;1.70;;
19260;SDS011;9764;48.114;11.670;2023-02-28T15:23:46;2.22;;;2.00;;
19260;SDS011;9764;48.114;11.670;2023-02-28T15:26:19;1.92;;;1.58;;
19260;SDS011;9764;48.114;11.670;2023-02-28T15:28:50;1.75;;;1.60;;
19260;SDS011;9764;48.114;11.670;2023-02-28T15:31:23;1.75;;;1.60;;
19260;SDS011;9764;48.114;11.670;2023-02-28T15:34:03;2.03;;;1.73;;
19260;SDS011;9764;48.114;11.670;2023-02-28T15:36:33;2.13;;;1.73;;
19260;SDS011;9764;48.114;11.670;2023-02-28T15:39:16;1.98;;;1.60;;
19260;SDS011;9764;48.114;11.670;2023-02-28T15:41:47;2.05;;;1.80;;
19260;SDS011;9764;48.114;11.670;2023-02-28T15:44:16;1.83;;;1.65;;
19260;SDS011;9764;48.114;11.670;2023-02-28T15:46:54;2.00;;;1.42;;
19260;SDS011;9764;48.114;11.670;2023-02-28T15:49:28;2.05;;;1.80;;
19260;SDS011;9764;48.114;11.670;2023-02-28T15:52:11;2.17;;;1.88;;
19260;SDS011;9764;48.114;11.670;2023-02-28T15:54:44;1.92;;;1.60;;